createdAt,value
2019-05-02T00:00:11.277Z,8.50
2019-05-02T00:02:14.172Z,8.50
2019-05-02T00:04:19.992Z,8.60
2019-05-02T00:06:20.572Z,8.70
2019-05-02T00:08:22.268Z,8.70
2019-05-02T00:10:25.982Z,8.70
2019-05-02T00:12:27.781Z,8.80
2019-05-02T00:14:29.969Z,8.80
2019-05-02T00:16:31.630Z,8.80
2019-05-02T00:18:37.314Z,8.80
2019-05-02T00:20:36.880Z,8.80
2019-05-02T00:22:38.564Z,8.90
2019-05-02T00:24:41.099Z,8.80
2019-05-02T00:26:43.238Z,8.90
2019-05-02T00:28:48.184Z,8.90
2019-05-02T00:30:48.769Z,8.90
2019-05-02T00:32:53.226Z,9.00
2019-05-02T00:34:54.024Z,9.00
2019-05-02T00:36:55.700Z,9.00
2019-05-02T00:38:57.649Z,9.00
2019-05-02T00:41:02.271Z,9.10
2019-05-02T00:43:03.206Z,9.20
2019-05-02T00:45:05.264Z,9.20
2019-05-02T00:47:15.984Z,9.30
2019-05-02T00:49:17.669Z,9.20
2019-05-02T00:51:21.933Z,9.30
2019-05-02T00:53:22.916Z,9.20
2019-05-02T00:55:28.781Z,9.20
2019-05-02T00:57:28.493Z,9.20
2019-05-02T00:59:30.216Z,9.20
2019-05-02T01:01:40.141Z,9.20
2019-05-02T01:03:47.190Z,9.20
2019-05-02T01:05:46.920Z,9.10
2019-05-02T01:07:48.581Z,9.10
2019-05-02T01:09:50.588Z,9.20
2019-05-02T01:11:52.240Z,9.20
2019-05-02T01:13:55.745Z,9.20
2019-05-02T01:15:57.793Z,9.20
2019-05-02T01:18:01.133Z,9.00
2019-05-02T01:20:03.980Z,9.20
2019-05-02T01:22:05.648Z,9.10
2019-05-02T01:24:07.681Z,9.00
2019-05-02T01:26:10.349Z,9.00
2019-05-02T01:28:18.752Z,9.10
2019-05-02T01:30:30.937Z,9.00
2019-05-02T01:32:45.182Z,9.10
2019-05-02T01:35:12.340Z,9.00
2019-05-02T01:37:21.011Z,9.00
2019-05-02T01:39:23.120Z,9.00
2019-05-02T01:41:29.081Z,8.90
2019-05-02T01:43:29.249Z,8.90
2019-05-02T01:45:30.970Z,8.80
2019-05-02T01:47:34.145Z,8.90
2019-05-02T01:49:36.565Z,9.00
2019-05-02T01:51:42.110Z,9.00
2019-05-02T01:53:41.888Z,9.00
2019-05-02T01:55:43.836Z,8.90
2019-05-02T01:57:46.024Z,9.00
2019-05-02T01:59:48.072Z,8.90
2019-05-02T02:01:53.201Z,8.90
2019-05-02T02:03:53.619Z,8.90
2019-05-02T02:05:55.293Z,8.90
2019-05-02T02:07:57.491Z,8.90
2019-05-02T02:09:59.698Z,8.90
2019-05-02T02:12:05.057Z,8.90
2019-05-02T02:14:07.260Z,8.90
2019-05-02T02:16:08.533Z,8.80
2019-05-02T02:18:11.000Z,8.70
2019-05-02T02:20:15.665Z,8.80
2019-05-02T02:22:29.371Z,8.70
2019-05-02T02:24:35.072Z,8.70
2019-05-02T02:26:36.736Z,8.70
2019-05-02T02:28:38.406Z,8.80
2019-05-02T02:30:40.090Z,8.70
2019-05-02T02:32:41.759Z,8.70
2019-05-02T02:34:43.439Z,8.70
2019-05-02T02:36:45.109Z,8.60
2019-05-02T02:38:46.783Z,8.70
2019-05-02T02:40:48.460Z,8.60
2019-05-02T02:42:50.118Z,8.60
2019-05-02T02:45:01.527Z,8.60
2019-05-02T02:47:04.533Z,8.60
2019-05-02T02:49:06.201Z,8.60
2019-05-02T02:51:07.884Z,8.70
2019-05-02T02:53:09.553Z,8.70
2019-05-02T02:55:16.240Z,8.60
2019-05-02T02:57:25.807Z,8.60
2019-05-02T02:59:19.463Z,8.60
2019-05-02T03:01:28.937Z,8.60
2019-05-02T03:03:27.799Z,8.60
2019-05-02T03:05:29.088Z,8.60
2019-05-02T03:07:30.756Z,8.60
2019-05-02T03:09:32.713Z,8.60
2019-05-02T03:11:43.490Z,8.60
2019-05-02T03:13:53.206Z,8.50
2019-05-02T03:16:00.292Z,8.60
2019-05-02T03:18:00.317Z,8.50
2019-05-02T03:20:03.897Z,8.60
2019-05-02T03:22:05.782Z,8.50
2019-05-02T03:24:07.445Z,8.50
2019-05-02T03:26:15.166Z,8.50
2019-05-02T03:28:18.493Z,8.40
2019-05-02T03:30:29.603Z,8.50
2019-05-02T03:32:32.147Z,8.50
2019-05-02T03:34:23.703Z,8.50
2019-05-02T03:36:30.190Z,8.50
2019-05-02T03:38:32.628Z,8.50
2019-05-02T03:40:39.254Z,8.50
2019-05-02T03:42:43.633Z,8.50
2019-05-02T03:44:39.675Z,8.50
2019-05-02T03:46:41.344Z,8.50
2019-05-02T03:48:43.009Z,8.50
2019-05-02T03:50:44.690Z,8.50
2019-05-02T03:52:46.652Z,8.50
2019-05-02T03:54:50.273Z,8.50
2019-05-02T03:56:53.436Z,8.50
2019-05-02T03:58:57.832Z,8.50
2019-05-02T04:01:01.688Z,8.50
2019-05-02T04:03:02.939Z,8.50
2019-05-02T04:05:04.897Z,8.50
2019-05-02T04:07:06.569Z,8.50
2019-05-02T04:09:23.250Z,8.40
2019-05-02T04:11:25.097Z,8.40
2019-05-02T04:13:30.151Z,8.40
2019-05-02T04:15:35.193Z,8.40
2019-05-02T04:17:35.202Z,8.40
2019-05-02T04:19:37.578Z,8.40
2019-05-02T04:21:39.350Z,8.40
2019-05-02T04:23:41.289Z,8.30
2019-05-02T04:25:42.969Z,8.30
2019-05-02T04:27:44.640Z,8.30
2019-05-02T04:29:46.313Z,8.40
2019-05-02T04:31:47.990Z,8.40
2019-05-02T04:33:49.665Z,8.40
2019-05-02T04:35:51.470Z,8.40
2019-05-02T04:37:53.226Z,8.40
2019-05-02T04:39:59.126Z,8.30
2019-05-02T04:42:05.071Z,8.30
2019-05-02T04:44:02.346Z,8.30
2019-05-02T04:46:09.245Z,8.40
2019-05-02T04:48:08.426Z,8.30
2019-05-02T04:50:17.832Z,8.40
2019-05-02T04:52:17.177Z,8.40
2019-05-02T04:54:25.773Z,8.40
2019-05-02T04:56:21.340Z,8.40
2019-05-02T04:58:27.737Z,8.40
2019-05-02T05:00:28.700Z,8.40
2019-05-02T05:02:36.503Z,8.50
2019-05-02T05:04:42.406Z,8.50
2019-05-02T05:06:38.056Z,8.50
2019-05-02T05:08:41.686Z,8.50
2019-05-02T05:10:45.019Z,8.50
2019-05-02T05:12:47.995Z,8.50
2019-05-02T05:14:50.008Z,8.50
2019-05-02T05:16:55.498Z,8.60
2019-05-02T05:18:55.429Z,8.60
2019-05-02T05:20:57.730Z,8.60
2019-05-02T05:22:59.966Z,8.70
2019-05-02T05:25:07.548Z,8.60
2019-05-02T05:27:13.275Z,8.70
2019-05-02T05:29:14.004Z,8.70
2019-05-02T05:31:23.986Z,8.80
2019-05-02T05:33:20.194Z,8.70
2019-05-02T05:35:21.856Z,8.80
2019-05-02T05:37:23.546Z,8.80
2019-05-02T05:39:25.200Z,8.80
2019-05-02T05:41:27.808Z,8.90
2019-05-02T05:43:29.740Z,8.90
2019-05-02T05:45:31.418Z,8.90
2019-05-02T05:47:33.089Z,8.90
2019-05-02T05:49:35.052Z,9.00
2019-05-02T05:51:37.532Z,9.00
2019-05-02T05:53:39.510Z,9.00
2019-05-02T05:55:41.185Z,9.00
2019-05-02T05:57:42.860Z,9.00
2019-05-02T05:59:44.845Z,9.00
2019-05-02T06:01:48.327Z,9.00
2019-05-02T06:03:50.112Z,9.10
2019-05-02T06:05:51.876Z,9.10
2019-05-02T06:07:53.562Z,9.10
2019-05-02T06:09:55.229Z,9.10
2019-05-02T06:11:56.946Z,9.10
2019-05-02T06:13:58.604Z,9.10
2019-05-02T06:16:02.652Z,9.10
2019-05-02T06:18:04.764Z,9.10
2019-05-02T06:20:06.889Z,9.00
2019-05-02T06:22:08.862Z,9.10
2019-05-02T06:24:10.916Z,9.20
2019-05-02T06:26:13.820Z,9.10
2019-05-02T06:28:16.626Z,9.10
2019-05-02T06:30:19.160Z,9.10
2019-05-02T06:32:20.834Z,9.10
2019-05-02T06:34:22.508Z,9.10
2019-05-02T06:36:24.189Z,9.10
2019-05-02T06:38:25.873Z,9.20
2019-05-02T06:40:27.540Z,9.20
2019-05-02T06:42:32.670Z,9.20
2019-05-02T06:44:32.781Z,9.30
2019-05-02T06:46:34.561Z,9.30
2019-05-02T06:48:36.254Z,9.30
2019-05-02T06:50:38.770Z,9.30
2019-05-02T06:52:42.034Z,9.40
2019-05-02T06:54:43.713Z,9.40
2019-05-02T06:56:47.939Z,9.40
2019-05-02T06:58:48.952Z,9.40
2019-05-02T07:00:58.499Z,9.40
2019-05-02T07:02:54.305Z,9.40
2019-05-02T07:04:56.157Z,9.50
2019-05-02T07:06:59.586Z,9.50
2019-05-02T07:09:01.713Z,9.60
2019-05-02T07:11:03.880Z,9.60
2019-05-02T07:13:10.739Z,9.60
2019-05-02T07:15:23.212Z,9.60
2019-05-02T07:17:53.770Z,9.70
2019-05-02T07:19:58.927Z,9.70
2019-05-02T07:22:04.345Z,9.70
2019-05-02T07:24:05.372Z,9.70
2019-05-02T07:26:07.353Z,9.70
2019-05-02T07:28:10.643Z,9.80
2019-05-02T07:30:13.500Z,9.80
2019-05-02T07:32:19.433Z,9.80
2019-05-02T07:34:18.759Z,9.80
2019-05-02T07:36:20.516Z,10.00
2019-05-02T07:38:25.775Z,9.90
2019-05-02T07:40:25.769Z,9.90
2019-05-02T07:42:27.442Z,9.90
2019-05-02T07:44:32.740Z,9.90
2019-05-02T07:46:32.681Z,9.90
2019-05-02T07:48:34.356Z,10.00
2019-05-02T07:50:36.287Z,10.10
2019-05-02T07:52:40.926Z,10.10
2019-05-02T07:54:41.534Z,10.20
2019-05-02T07:56:43.192Z,10.10
2019-05-02T07:58:48.018Z,10.00
2019-05-02T08:00:48.428Z,10.10
2019-05-02T08:02:50.328Z,10.00
2019-05-02T08:04:52.018Z,10.10
2019-05-02T08:06:53.701Z,10.00
2019-05-02T08:08:55.390Z,10.10
2019-05-02T08:11:01.737Z,10.10
2019-05-02T08:13:00.628Z,10.10
2019-05-02T08:15:02.396Z,10.10
2019-05-02T08:17:05.704Z,10.10
2019-05-02T08:19:07.720Z,10.10
2019-05-02T08:21:09.374Z,10.10
2019-05-02T08:23:13.434Z,10.10
2019-05-02T08:25:14.633Z,10.20
2019-05-02T08:27:39.958Z,10.20
2019-05-02T08:29:41.643Z,10.20
2019-05-02T08:31:43.312Z,10.20
2019-05-02T08:33:44.994Z,10.30
2019-05-02T08:35:46.660Z,10.40
2019-05-02T08:37:48.332Z,10.50
2019-05-02T08:39:50.001Z,10.50
2019-05-02T08:41:56.496Z,10.50
2019-05-02T08:43:55.500Z,10.60
2019-05-02T08:45:57.160Z,10.60
2019-05-02T08:48:00.279Z,10.60
2019-05-02T08:50:02.730Z,10.60
2019-05-02T08:52:04.750Z,10.60
2019-05-02T08:54:06.431Z,10.70
2019-05-02T08:56:08.106Z,10.70
2019-05-02T08:58:14.534Z,10.70
2019-05-02T09:00:13.600Z,10.80
2019-05-02T09:02:15.264Z,10.80
2019-05-02T09:04:16.943Z,10.90
2019-05-02T09:06:22.370Z,10.90
2019-05-02T09:08:22.172Z,11.00
2019-05-02T09:10:23.854Z,11.00
2019-05-02T09:12:25.761Z,11.00
2019-05-02T09:14:27.440Z,11.10
2019-05-02T09:16:30.551Z,11.10
2019-05-02T09:18:38.626Z,11.20
2019-05-02T09:20:36.260Z,11.10
2019-05-02T09:22:37.930Z,11.20
2019-05-02T09:24:42.981Z,11.30
2019-05-02T09:26:44.308Z,11.40
2019-05-02T09:28:45.974Z,11.40
2019-05-02T09:30:47.640Z,11.50
2019-05-02T09:32:49.357Z,11.60
2019-05-02T09:34:51.820Z,11.60
2019-05-02T09:36:53.707Z,11.70
2019-05-02T09:38:57.576Z,11.70
2019-05-02T09:40:59.217Z,11.80
2019-05-02T09:43:02.790Z,11.60
2019-05-02T09:45:05.068Z,11.60
2019-05-02T09:47:08.645Z,11.60
2019-05-02T09:49:15.749Z,11.70
2019-05-02T09:51:17.440Z,11.70
2019-05-02T09:53:20.648Z,11.70
2019-05-02T09:55:22.641Z,11.90
2019-05-02T09:57:24.522Z,12.00
2019-05-02T09:59:33.156Z,12.20
2019-05-02T10:01:36.741Z,12.10
2019-05-02T10:03:38.400Z,12.30
2019-05-02T10:05:40.068Z,12.40
2019-05-02T10:07:41.988Z,12.10
2019-05-02T10:09:44.058Z,12.30
2019-05-02T10:11:46.048Z,12.40
2019-05-02T10:13:47.709Z,12.40
2019-05-02T10:15:49.376Z,12.40
2019-05-02T10:17:51.902Z,12.50
2019-05-02T10:19:57.044Z,12.50
2019-05-02T10:21:57.369Z,12.60
2019-05-02T10:24:00.857Z,12.70
2019-05-02T10:26:03.013Z,12.80
2019-05-02T10:28:05.343Z,12.90
2019-05-02T10:30:11.805Z,13.10
2019-05-02T10:32:13.062Z,13.20
2019-05-02T10:34:17.624Z,13.30
2019-05-02T10:36:19.821Z,13.10
2019-05-02T10:38:22.758Z,13.10
2019-05-02T10:40:24.670Z,13.10
2019-05-02T10:42:26.573Z,12.90
2019-05-02T10:44:32.611Z,13.30
2019-05-02T10:46:57.290Z,13.60
2019-05-02T10:49:07.429Z,13.60
2019-05-02T10:51:28.789Z,13.90
2019-05-02T10:53:32.212Z,13.70
2019-05-02T10:55:34.049Z,13.50
2019-05-02T10:57:35.971Z,13.90
2019-05-02T10:59:37.636Z,14.00
2019-05-02T11:01:59.002Z,14.20
2019-05-02T11:04:02.718Z,14.50
2019-05-02T11:06:07.660Z,14.50
2019-05-02T11:08:08.294Z,14.60
2019-05-02T11:10:12.175Z,14.90
2019-05-02T11:12:24.328Z,15.00
2019-05-02T11:14:28.892Z,14.90
2019-05-02T11:16:53.220Z,14.90
2019-05-02T11:19:13.283Z,14.80
2019-05-02T11:21:15.282Z,14.90
2019-05-02T11:23:16.944Z,14.50
2019-05-02T11:25:18.612Z,14.50
2019-05-02T11:27:22.016Z,14.40
2019-05-02T11:29:23.868Z,14.50
2019-05-02T11:31:25.545Z,15.10
2019-05-02T11:33:27.213Z,16.20
2019-05-02T11:35:28.892Z,16.70
2019-05-02T11:37:32.348Z,17.50
2019-05-02T11:39:43.943Z,18.00
2019-05-02T11:41:37.721Z,17.90
2019-05-02T11:43:42.378Z,17.30
2019-05-02T11:45:43.269Z,17.50
2019-05-02T11:47:44.951Z,18.00
2019-05-02T11:49:46.939Z,17.70
2019-05-02T11:51:52.657Z,17.40
2019-05-02T11:53:53.769Z,16.90
2019-05-02T11:55:58.426Z,17.60
2019-05-02T11:58:01.037Z,17.20
2019-05-02T12:00:07.634Z,17.40
2019-05-02T12:02:18.785Z,17.20
2019-05-02T12:04:21.538Z,16.70
2019-05-02T12:06:23.481Z,17.40
2019-05-02T12:08:25.148Z,17.00
2019-05-02T12:10:27.945Z,17.20
2019-05-02T12:12:34.335Z,17.10
2019-05-02T12:14:36.363Z,16.70
2019-05-02T12:16:37.146Z,16.50
2019-05-02T12:18:39.064Z,16.30
2019-05-02T12:20:42.590Z,16.30
2019-05-02T12:22:44.321Z,16.00
2019-05-02T12:24:45.985Z,15.80
2019-05-02T12:26:47.678Z,15.80
2019-05-02T12:28:49.613Z,15.80
2019-05-02T12:30:52.023Z,16.10
2019-05-02T12:32:53.952Z,16.10
2019-05-02T12:34:55.604Z,16.20
2019-05-02T12:36:57.305Z,16.10
2019-05-02T12:38:58.970Z,16.20
2019-05-02T12:41:02.622Z,16.10
2019-05-02T12:43:04.525Z,16.10
2019-05-02T12:45:06.192Z,15.90
2019-05-02T12:47:07.869Z,15.70
2019-05-02T12:49:22.578Z,15.70
2019-05-02T12:51:13.122Z,15.60
2019-05-02T12:53:14.801Z,15.30
2019-05-02T12:55:16.470Z,15.40
2019-05-02T12:57:18.430Z,15.30
2019-05-02T12:59:20.097Z,15.20
2019-05-02T13:01:22.065Z,15.20
2019-05-02T13:03:52.912Z,15.10
2019-05-02T13:05:54.587Z,15.10
2019-05-02T13:07:56.265Z,15.00
2019-05-02T13:09:57.928Z,15.10
2019-05-02T13:12:03.962Z,15.10
2019-05-02T13:14:15.731Z,15.10
2019-05-02T13:16:09.287Z,15.10
2019-05-02T13:18:12.481Z,15.10
2019-05-02T13:20:16.220Z,15.20
2019-05-02T13:22:46.650Z,15.10
2019-05-02T13:24:54.087Z,15.00
2019-05-02T13:26:59.464Z,14.90
2019-05-02T13:28:58.456Z,14.90
2019-05-02T13:31:11.686Z,14.70
2019-05-02T13:33:20.309Z,14.70
2019-05-02T13:35:31.804Z,14.50
2019-05-02T13:37:33.013Z,14.50
2019-05-02T13:39:42.968Z,14.50
2019-05-02T13:41:44.637Z,14.30
2019-05-02T13:43:48.209Z,14.30
2019-05-02T13:46:15.424Z,14.20
2019-05-02T13:48:17.210Z,14.30
2019-05-02T13:50:18.868Z,14.20
2019-05-02T13:52:22.508Z,14.10
2019-05-02T13:54:24.845Z,14.00
2019-05-02T13:56:46.197Z,13.90
2019-05-02T13:58:48.128Z,13.70
2019-05-02T14:00:50.093Z,13.70
2019-05-02T14:02:52.049Z,13.70
2019-05-02T14:04:54.046Z,13.60
2019-05-02T14:06:56.004Z,13.50
2019-05-02T14:09:07.928Z,13.50
2019-05-02T14:11:25.930Z,13.50
2019-05-02T14:13:27.889Z,13.40
2019-05-02T14:15:35.136Z,13.30
2019-05-02T14:17:36.817Z,13.30
2019-05-02T14:19:38.484Z,13.20
2019-05-02T14:21:42.165Z,13.20
2019-05-02T14:23:43.732Z,13.20
2019-05-02T14:25:45.496Z,13.30
2019-05-02T14:27:51.554Z,13.30
2019-05-02T14:29:52.492Z,13.30
2019-05-02T14:31:54.355Z,13.40
2019-05-02T14:34:14.525Z,13.40
2019-05-02T14:36:16.614Z,13.30
2019-05-02T14:38:18.292Z,13.20
2019-05-02T14:40:29.045Z,13.30
2019-05-02T14:42:32.261Z,13.30
2019-05-02T14:45:01.359Z,13.30
2019-05-02T14:46:39.559Z,13.20
2019-05-02T14:48:45.098Z,13.30
2019-05-02T14:50:45.761Z,13.30
2019-05-02T14:52:47.603Z,13.40
2019-05-02T14:54:49.311Z,13.30
2019-05-02T14:57:02.237Z,13.40
2019-05-02T14:59:03.951Z,13.50
2019-05-02T15:01:05.612Z,13.60
2019-05-02T15:03:07.293Z,13.60
2019-05-02T15:05:09.266Z,13.60
2019-05-02T15:07:12.802Z,13.60
2019-05-02T15:09:16.755Z,13.50
2019-05-02T15:11:18.188Z,13.50
2019-05-02T15:13:19.860Z,13.40
2019-05-02T15:15:23.100Z,13.40
2019-05-02T15:17:27.958Z,13.40
2019-05-02T15:19:28.714Z,13.30
2019-05-02T15:21:46.893Z,13.40
2019-05-02T15:23:48.893Z,13.30
2019-05-02T15:25:52.491Z,13.30
2019-05-02T15:27:58.170Z,13.40
2019-05-02T15:30:05.113Z,13.50
2019-05-02T15:32:12.773Z,13.50
2019-05-02T15:34:22.700Z,13.50
2019-05-02T15:36:24.619Z,13.50
2019-05-02T15:38:28.202Z,13.40
2019-05-02T15:42:32.370Z,13.40
2019-05-02T15:44:34.532Z,13.50
2019-05-02T15:46:36.496Z,13.50
2019-05-02T15:48:38.177Z,13.50
2019-05-02T15:50:49.176Z,13.50
2019-05-02T15:52:47.448Z,13.40
2019-05-02T15:54:55.528Z,13.50
2019-05-02T15:57:00.638Z,13.30
2019-05-02T15:58:58.062Z,13.40
2019-05-02T16:01:14.749Z,13.40
2019-05-02T16:03:16.413Z,13.30
2019-05-02T16:05:18.101Z,13.20
2019-05-02T16:07:19.764Z,13.10
2019-05-02T16:09:21.649Z,13.00
2019-05-02T16:11:23.420Z,12.90
2019-05-02T16:13:25.090Z,12.80
2019-05-02T16:15:26.769Z,12.80
2019-05-02T16:17:28.437Z,12.70
2019-05-02T16:19:32.954Z,12.60
2019-05-02T16:21:45.506Z,12.60
2019-05-02T16:24:11.060Z,12.50
2019-05-02T16:26:09.019Z,12.60
2019-05-02T16:28:12.708Z,12.60
2019-05-02T16:30:18.497Z,12.70
2019-05-02T16:32:30.925Z,12.60
2019-05-02T16:34:35.256Z,12.60
2019-05-02T16:36:37.514Z,12.60
2019-05-02T16:38:39.199Z,12.60
2019-05-02T16:40:41.861Z,12.70
2019-05-02T16:42:44.141Z,12.60
2019-05-02T16:44:45.825Z,12.60
2019-05-02T16:46:47.601Z,12.60
2019-05-02T16:48:49.369Z,12.60
2019-05-02T16:50:51.054Z,12.70
2019-05-02T16:52:53.271Z,12.70
2019-05-02T16:54:55.258Z,12.70
2019-05-02T16:56:58.562Z,12.70
2019-05-02T16:59:02.016Z,12.80
2019-05-02T17:01:04.573Z,12.70
2019-05-02T17:03:06.248Z,12.80
2019-05-02T17:05:09.545Z,12.80
2019-05-02T17:07:16.789Z,12.80
2019-05-02T17:09:28.694Z,12.80
2019-05-02T17:11:35.995Z,12.70
2019-05-02T17:13:38.105Z,12.80
2019-05-02T17:15:40.168Z,12.70
2019-05-02T17:17:42.353Z,12.60
2019-05-02T17:19:44.237Z,12.50
2019-05-02T17:21:53.772Z,12.60
2019-05-02T17:23:50.447Z,12.50
2019-05-02T17:25:53.085Z,12.40
2019-05-02T17:28:01.172Z,12.30
2019-05-02T17:29:59.528Z,12.30
2019-05-02T17:32:02.478Z,12.20
2019-05-02T17:34:04.240Z,12.20
2019-05-02T17:36:05.920Z,12.20
2019-05-02T17:38:07.856Z,12.20
2019-05-02T17:40:09.636Z,12.10
2019-05-02T17:42:12.429Z,12.10
2019-05-02T17:44:18.376Z,12.10
2019-05-02T17:46:21.059Z,12.10
2019-05-02T17:48:21.962Z,12.00
2019-05-02T17:50:37.292Z,12.00
2019-05-02T17:52:43.552Z,12.00
2019-05-02T17:54:48.004Z,12.00
2019-05-02T17:56:52.379Z,12.00
2019-05-02T17:58:58.189Z,12.00
2019-05-02T18:01:00.747Z,12.00
2019-05-02T18:03:02.932Z,11.90
2019-05-02T18:05:04.652Z,11.90
2019-05-02T18:07:06.324Z,11.90
2019-05-02T18:09:07.999Z,11.90
2019-05-02T18:11:09.686Z,11.90
2019-05-02T18:13:12.140Z,11.90
2019-05-02T18:15:14.034Z,11.80
2019-05-02T18:17:15.716Z,11.90
2019-05-02T18:19:21.864Z,11.90
2019-05-02T18:21:26.887Z,11.80
2019-05-02T18:23:27.595Z,11.80
2019-05-02T18:25:28.101Z,11.70
2019-05-02T18:27:29.780Z,11.80
2019-05-02T18:29:31.448Z,11.80
2019-05-02T18:31:34.918Z,11.70
2019-05-02T18:33:41.116Z,11.80
2019-05-02T18:35:43.060Z,11.70
2019-05-02T18:37:46.760Z,11.60
2019-05-02T18:39:53.386Z,11.60
2019-05-02T18:41:51.965Z,11.50
2019-05-02T18:43:53.778Z,11.40
2019-05-02T18:45:58.179Z,11.30
2019-05-02T18:48:02.474Z,11.20
2019-05-02T18:50:06.113Z,11.20
2019-05-02T18:52:06.260Z,11.10
2019-05-02T18:54:07.924Z,11.10
2019-05-02T18:56:09.864Z,11.00
2019-05-02T18:58:12.761Z,11.00
2019-05-02T19:00:14.905Z,11.00
2019-05-02T19:02:16.577Z,11.00
2019-05-02T19:04:18.257Z,11.00
2019-05-02T19:06:21.876Z,11.00
2019-05-02T19:08:30.880Z,11.00
2019-05-02T19:10:27.069Z,11.00
2019-05-02T19:12:28.740Z,10.90
2019-05-02T19:14:32.577Z,10.90
2019-05-02T19:16:34.325Z,10.90
2019-05-02T19:18:35.992Z,10.90
2019-05-02T19:21:06.600Z,10.80
2019-05-02T19:23:08.277Z,10.70
2019-05-02T19:25:11.977Z,10.70
2019-05-02T19:27:15.418Z,10.60
2019-05-02T19:29:24.002Z,10.70
2019-05-02T19:31:32.047Z,10.60
2019-05-02T19:33:37.467Z,10.70
2019-05-02T19:35:42.081Z,10.70
2019-05-02T19:37:44.625Z,10.70
2019-05-02T19:39:48.654Z,10.60
2019-05-02T19:41:48.222Z,10.60
2019-05-02T19:43:51.464Z,10.60
2019-05-02T19:45:54.121Z,10.60
2019-05-02T19:47:57.688Z,10.50
2019-05-02T19:49:59.429Z,10.60
2019-05-02T19:52:02.262Z,10.60
2019-05-02T19:54:07.005Z,10.50
2019-05-02T19:56:07.884Z,10.50
2019-05-02T19:58:10.228Z,10.50
2019-05-02T20:00:12.210Z,10.50
2019-05-02T20:02:14.502Z,10.60
2019-05-02T20:04:16.481Z,10.50
2019-05-02T20:06:18.148Z,10.60
2019-05-02T20:08:24.077Z,10.50
2019-05-02T20:10:23.652Z,10.50
2019-05-02T20:12:25.338Z,10.50
2019-05-02T20:14:26.996Z,10.40
2019-05-02T20:16:36.700Z,10.20
2019-05-02T20:18:43.788Z,10.20
2019-05-02T20:20:48.070Z,10.20
2019-05-02T20:22:49.981Z,10.10
2019-05-02T20:24:55.435Z,10.10
2019-05-02T20:26:56.282Z,10.10
2019-05-02T20:28:57.954Z,10.00
2019-05-02T20:31:01.685Z,10.00
2019-05-02T20:33:05.251Z,9.90
2019-05-02T20:35:07.072Z,9.80
2019-05-02T20:37:08.757Z,9.70
2019-05-02T20:39:11.911Z,9.70
2019-05-02T20:41:14.205Z,9.70
2019-05-02T20:43:15.885Z,9.60
2019-05-02T20:45:17.550Z,9.50
2019-05-02T20:47:21.870Z,9.50
2019-05-02T20:49:23.834Z,9.50
2019-05-02T20:51:26.300Z,9.40
2019-05-02T20:53:31.414Z,9.40
2019-05-02T20:55:32.341Z,9.30
2019-05-02T20:57:34.164Z,9.20
2019-05-02T20:59:35.832Z,9.20
2019-05-02T21:01:37.779Z,9.10
2019-05-02T21:03:39.460Z,9.00
2019-05-02T21:06:06.737Z,9.00
2019-05-02T21:08:22.020Z,9.00
2019-05-02T21:10:29.821Z,8.90
2019-05-02T21:12:31.606Z,8.90
2019-05-02T21:14:33.585Z,8.90
2019-05-02T21:16:35.257Z,8.80
2019-05-02T21:18:37.188Z,8.80
2019-05-02T21:20:38.857Z,8.80
2019-05-02T21:22:42.166Z,8.80
2019-05-02T21:24:44.480Z,8.70
2019-05-02T21:26:46.145Z,8.70
2019-05-02T21:28:48.209Z,8.70
2019-05-02T21:30:49.880Z,8.70
2019-05-02T21:32:52.125Z,8.60
2019-05-02T21:34:53.960Z,8.60
2019-05-02T21:36:55.944Z,8.50
2019-05-02T21:38:57.624Z,8.50
2019-05-02T21:40:59.293Z,8.40
2019-05-02T21:43:02.482Z,8.40
2019-05-02T21:45:04.660Z,8.40
2019-05-02T21:47:06.422Z,8.40
2019-05-02T21:49:08.108Z,8.40
2019-05-02T21:51:26.631Z,8.40
2019-05-02T21:53:56.023Z,8.40
2019-05-02T21:56:09.157Z,8.40
2019-05-02T21:58:12.109Z,8.40
2019-05-02T22:00:18.169Z,8.50
2019-05-02T22:02:19.849Z,8.50
2019-05-02T22:04:22.412Z,8.50
2019-05-02T22:06:25.552Z,8.60
2019-05-02T22:08:27.240Z,8.70
2019-05-02T22:10:28.908Z,8.70
2019-05-02T22:12:31.766Z,8.70
2019-05-02T22:14:34.191Z,8.70
2019-05-02T22:16:35.860Z,8.80
2019-05-02T22:18:37.796Z,8.80
2019-05-02T22:20:39.496Z,8.80
2019-05-02T22:22:42.584Z,8.80
2019-05-02T22:24:44.649Z,8.80
2019-05-02T22:26:46.407Z,8.80
2019-05-02T22:28:48.242Z,8.80
2019-05-02T22:30:54.361Z,8.80
2019-05-02T22:32:54.324Z,8.90
2019-05-02T22:34:56.168Z,8.90
2019-05-02T22:36:58.148Z,8.90
2019-05-02T22:39:08.748Z,8.90
2019-05-02T22:41:12.144Z,8.80
2019-05-02T22:43:13.977Z,8.90
2019-05-02T22:45:15.675Z,8.90
2019-05-02T22:47:17.332Z,8.90
2019-05-02T22:49:19.013Z,8.90
2019-05-02T22:51:22.497Z,8.90
2019-05-02T22:53:24.248Z,8.90
2019-05-02T22:55:25.929Z,8.90
2019-05-02T22:57:27.596Z,8.90
2019-05-02T22:59:29.284Z,8.90
2019-05-02T23:01:32.405Z,8.90
2019-05-02T23:03:34.342Z,8.90
2019-05-02T23:05:36.020Z,8.90
2019-05-02T23:07:37.703Z,8.90
2019-05-02T23:09:39.374Z,8.90
2019-05-02T23:11:42.614Z,8.80
2019-05-02T23:13:44.806Z,8.80
2019-05-02T23:15:46.489Z,8.80
2019-05-02T23:17:48.149Z,8.80
2019-05-02T23:19:49.841Z,8.70
2019-05-02T23:21:52.633Z,8.70
2019-05-02T23:23:54.565Z,8.70
2019-05-02T23:26:10.056Z,8.60
2019-05-02T23:28:16.038Z,8.70
2019-05-02T23:30:22.412Z,8.60
2019-05-02T23:32:24.068Z,8.50
2019-05-02T23:34:25.745Z,8.60
2019-05-02T23:36:28.107Z,8.50
2019-05-02T23:38:29.782Z,8.50
2019-05-02T23:40:31.797Z,8.50
2019-05-02T23:42:33.464Z,8.50
2019-05-02T23:44:35.132Z,8.50
2019-05-02T23:46:36.800Z,8.50
2019-05-02T23:48:38.576Z,8.50
2019-05-02T23:50:40.254Z,8.40
2019-05-02T23:52:41.926Z,8.30
2019-05-02T23:54:51.718Z,8.40
2019-05-02T23:56:47.177Z,8.30
